sensor_id;sensor_type;location;lat;lon;timestamp;temperature;humidity
70214;DHT22;60138;55.808;37.078;2023-05-29T00:02:05;8.18;62.39
70214;DHT22;60138;55.808;37.078;2023-05-29T00:04:31;8.17;62.70
70214;DHT22;60138;55.808;37.078;2023-05-29T00:06:57;8.14;62.59
70214;DHT22;60138;55.808;37.078;2023-05-29T00:09:22;8.12;62.81
70214;DHT22;60138;55.808;37.078;2023-05-29T00:11:48;8.11;62.76
70214;DHT22;60138;55.808;37.078;2023-05-29T00:14:14;8.07;62.73
70214;DHT22;60138;55.808;37.078;2023-05-29T00:16:40;8.04;62.91
70214;DHT22;60138;55.808;37.078;2023-05-29T00:19:05;8.02;62.72
70214;DHT22;60138;55.808;37.078;2023-05-29T00:21:31;8.00;62.89
70214;DHT22;60138;55.808;37.078;2023-05-29T00:23:56;7.94;63.11
70214;DHT22;60138;55.808;37.078;2023-05-29T00:26:22;7.91;63.10
70214;DHT22;60138;55.808;37.078;2023-05-29T00:28:53;7.87;63.21
70214;DHT22;60138;55.808;37.078;2023-05-29T00:31:19;7.83;63.02
70214;DHT22;60138;55.808;37.078;2023-05-29T00:33:44;7.81;63.29
70214;DHT22;60138;55.808;37.078;2023-05-29T00:36:10;7.77;62.98
70214;DHT22;60138;55.808;37.078;2023-05-29T00:38:36;7.74;63.17
70214;DHT22;60138;55.808;37.078;2023-05-29T00:41:02;7.71;63.21
70214;DHT22;60138;55.808;37.078;2023-05-29T00:43:27;7.68;63.11
70214;DHT22;60138;55.808;37.078;2023-05-29T00:45:53;7.63;63.29
70214;DHT22;60138;55.808;37.078;2023-05-29T00:48:19;7.62;63.38
70214;DHT22;60138;55.808;37.078;2023-05-29T00:50:45;7.59;63.40
70214;DHT22;60138;55.808;37.078;2023-05-29T00:53:11;7.58;63.40
70214;DHT22;60138;55.808;37.078;2023-05-29T00:55:38;7.55;63.60
70214;DHT22;60138;55.808;37.078;2023-05-29T00:58:04;7.55;63.66
70214;DHT22;60138;55.808;37.078;2023-05-29T01:00:30;7.54;63.73
70214;DHT22;60138;55.808;37.078;2023-05-29T01:02:56;7.52;63.69
70214;DHT22;60138;55.808;37.078;2023-05-29T01:05:22;7.52;63.98
70214;DHT22;60138;55.808;37.078;2023-05-29T01:07:48;7.53;64.21
70214;DHT22;60138;55.808;37.078;2023-05-29T01:10:14;7.48;63.91
70214;DHT22;60138;55.808;37.078;2023-05-29T01:12:49;7.47;64.05
70214;DHT22;60138;55.808;37.078;2023-05-29T01:15:52;7.45;64.33
70214;DHT22;60138;55.808;37.078;2023-05-29T01:22:05;7.41;64.31
70214;DHT22;60138;55.808;37.078;2023-05-29T01:24:48;7.38;64.44
70214;DHT22;60138;55.808;37.078;2023-05-29T01:30:43;7.35;64.13
70214;DHT22;60138;55.808;37.078;2023-05-29T01:33:10;7.32;64.14
70214;DHT22;60138;55.808;37.078;2023-05-29T01:35:36;7.30;64.06
70214;DHT22;60138;55.808;37.078;2023-05-29T01:38:02;7.28;64.17
70214;DHT22;60138;55.808;37.078;2023-05-29T01:40:28;7.27;64.30
70214;DHT22;60138;55.808;37.078;2023-05-29T01:42:54;7.27;64.13
70214;DHT22;60138;55.808;37.078;2023-05-29T01:45:20;7.27;64.27
70214;DHT22;60138;55.808;37.078;2023-05-29T01:47:46;7.29;64.34
70214;DHT22;60138;55.808;37.078;2023-05-29T01:50:15;7.31;64.66
70214;DHT22;60138;55.808;37.078;2023-05-29T01:52:43;7.32;64.76
70214;DHT22;60138;55.808;37.078;2023-05-29T01:55:09;7.32;64.72
70214;DHT22;60138;55.808;37.078;2023-05-29T01:57:35;7.32;64.72
70214;DHT22;60138;55.808;37.078;2023-05-29T02:00:03;7.32;64.97
70214;DHT22;60138;55.808;37.078;2023-05-29T02:02:41;7.32;64.88
70214;DHT22;60138;55.808;37.078;2023-05-29T02:05:09;7.33;64.99
70214;DHT22;60138;55.808;37.078;2023-05-29T02:07:35;7.34;65.04
70214;DHT22;60138;55.808;37.078;2023-05-29T02:10:02;7.39;65.13
70214;DHT22;60138;55.808;37.078;2023-05-29T02:12:29;7.42;65.04
70214;DHT22;60138;55.808;37.078;2023-05-29T02:14:55;7.43;65.05
70214;DHT22;60138;55.808;37.078;2023-05-29T02:17:21;7.46;65.24
70214;DHT22;60138;55.808;37.078;2023-05-29T02:19:47;7.47;64.89
70214;DHT22;60138;55.808;37.078;2023-05-29T02:22:17;7.50;65.06
70214;DHT22;60138;55.808;37.078;2023-05-29T02:24:43;7.52;65.08
70214;DHT22;60138;55.808;37.078;2023-05-29T02:27:08;7.54;65.22
70214;DHT22;60138;55.808;37.078;2023-05-29T02:29:35;7.57;65.27
70214;DHT22;60138;55.808;37.078;2023-05-29T02:32:00;7.58;65.30
70214;DHT22;60138;55.808;37.078;2023-05-29T02:34:26;7.62;67.04
70214;DHT22;60138;55.808;37.078;2023-05-29T02:36:52;7.68;66.33
70214;DHT22;60138;55.808;37.078;2023-05-29T02:39:18;7.73;66.27
70214;DHT22;60138;55.808;37.078;2023-05-29T02:41:44;7.77;65.96
70214;DHT22;60138;55.808;37.078;2023-05-29T02:44:10;7.79;65.98
70214;DHT22;60138;55.808;37.078;2023-05-29T02:46:36;7.87;69.23
70214;DHT22;60138;55.808;37.078;2023-05-29T02:49:02;7.91;69.13
70214;DHT22;60138;55.808;37.078;2023-05-29T02:51:28;7.99;68.61
70214;DHT22;60138;55.808;37.078;2023-05-29T02:53:54;8.03;70.28
70214;DHT22;60138;55.808;37.078;2023-05-29T02:56:20;8.08;67.78
70214;DHT22;60138;55.808;37.078;2023-05-29T02:58:46;8.13;66.80
70214;DHT22;60138;55.808;37.078;2023-05-29T03:01:13;8.17;67.49
70214;DHT22;60138;55.808;37.078;2023-05-29T03:03:39;8.26;68.57
70214;DHT22;60138;55.808;37.078;2023-05-29T03:06:05;8.32;66.65
70214;DHT22;60138;55.808;37.078;2023-05-29T03:08:34;8.37;68.09
70214;DHT22;60138;55.808;37.078;2023-05-29T03:11:00;8.44;66.95
70214;DHT22;60138;55.808;37.078;2023-05-29T03:13:26;8.46;68.08
70214;DHT22;60138;55.808;37.078;2023-05-29T03:16:00;8.56;68.74
70214;DHT22;60138;55.808;37.078;2023-05-29T03:18:25;8.62;66.88
70214;DHT22;60138;55.808;37.078;2023-05-29T03:20:51;8.64;66.33
70214;DHT22;60138;55.808;37.078;2023-05-29T03:23:17;8.67;66.01
70214;DHT22;60138;55.808;37.078;2023-05-29T03:25:43;8.71;66.30
70214;DHT22;60138;55.808;37.078;2023-05-29T03:28:09;8.78;66.43
70214;DHT22;60138;55.808;37.078;2023-05-29T03:30:35;8.81;65.76
70214;DHT22;60138;55.808;37.078;2023-05-29T03:33:01;8.85;65.87
70214;DHT22;60138;55.808;37.078;2023-05-29T03:35:39;8.88;65.66
70214;DHT22;60138;55.808;37.078;2023-05-29T03:38:07;8.92;65.71
70214;DHT22;60138;55.808;37.078;2023-05-29T03:40:33;8.96;65.63
70214;DHT22;60138;55.808;37.078;2023-05-29T03:42:58;9.02;65.66
70214;DHT22;60138;55.808;37.078;2023-05-29T03:45:24;9.09;66.98
70214;DHT22;60138;55.808;37.078;2023-05-29T03:47:50;9.22;66.97
70214;DHT22;60138;55.808;37.078;2023-05-29T03:50:16;9.39;68.81
70214;DHT22;60138;55.808;37.078;2023-05-29T03:52:44;9.64;65.52
70214;DHT22;60138;55.808;37.078;2023-05-29T03:55:10;9.75;65.92
70214;DHT22;60138;55.808;37.078;2023-05-29T03:57:36;9.93;64.50
70214;DHT22;60138;55.808;37.078;2023-05-29T04:00:02;10.13;64.39
70214;DHT22;60138;55.808;37.078;2023-05-29T04:02:31;10.26;63.85
70214;DHT22;60138;55.808;37.078;2023-05-29T04:04:56;10.37;62.62
70214;DHT22;60138;55.808;37.078;2023-05-29T04:07:22;10.41;61.78
70214;DHT22;60138;55.808;37.078;2023-05-29T04:09:48;10.54;61.41
70214;DHT22;60138;55.808;37.078;2023-05-29T04:12:14;10.56;61.86
70214;DHT22;60138;55.808;37.078;2023-05-29T04:14:39;10.62;60.80
70214;DHT22;60138;55.808;37.078;2023-05-29T04:17:06;10.62;61.41
70214;DHT22;60138;55.808;37.078;2023-05-29T04:19:31;10.71;60.61
70214;DHT22;60138;55.808;37.078;2023-05-29T04:21:57;10.77;60.70
70214;DHT22;60138;55.808;37.078;2023-05-29T04:24:23;10.82;59.97
70214;DHT22;60138;55.808;37.078;2023-05-29T04:26:50;10.81;60.83
70214;DHT22;60138;55.808;37.078;2023-05-29T04:29:17;10.88;59.80
70214;DHT22;60138;55.808;37.078;2023-05-29T04:31:44;10.90;59.78
70214;DHT22;60138;55.808;37.078;2023-05-29T04:34:10;10.97;60.01
70214;DHT22;60138;55.808;37.078;2023-05-29T04:36:37;11.00;59.41
70214;DHT22;60138;55.808;37.078;2023-05-29T04:39:07;11.05;59.06
70214;DHT22;60138;55.808;37.078;2023-05-29T04:41:34;11.08;59.17
70214;DHT22;60138;55.808;37.078;2023-05-29T04:44:02;11.11;59.12
70214;DHT22;60138;55.808;37.078;2023-05-29T04:46:34;11.16;58.90
70214;DHT22;60138;55.808;37.078;2023-05-29T04:49:00;11.24;58.88
70214;DHT22;60138;55.808;37.078;2023-05-29T04:51:26;11.27;58.58
70214;DHT22;60138;55.808;37.078;2023-05-29T04:53:53;11.27;58.35
70214;DHT22;60138;55.808;37.078;2023-05-29T04:56:19;11.32;58.38
70214;DHT22;60138;55.808;37.078;2023-05-29T04:58:46;11.39;58.42
70214;DHT22;60138;55.808;37.078;2023-05-29T05:01:12;11.45;58.04
70214;DHT22;60138;55.808;37.078;2023-05-29T05:03:38;11.51;57.79
70214;DHT22;60138;55.808;37.078;2023-05-29T05:06:05;11.58;57.65
70214;DHT22;60138;55.808;37.078;2023-05-29T05:08:31;11.62;57.55
70214;DHT22;60138;55.808;37.078;2023-05-29T05:10:59;11.69;57.58
70214;DHT22;60138;55.808;37.078;2023-05-29T05:13:25;11.79;56.95
70214;DHT22;60138;55.808;37.078;2023-05-29T05:15:52;11.88;56.90
70214;DHT22;60138;55.808;37.078;2023-05-29T05:18:18;12.00;56.64
70214;DHT22;60138;55.808;37.078;2023-05-29T05:20:51;12.07;56.57
70214;DHT22;60138;55.808;37.078;2023-05-29T05:23:17;12.18;56.26
70214;DHT22;60138;55.808;37.078;2023-05-29T05:25:42;12.28;56.39
70214;DHT22;60138;55.808;37.078;2023-05-29T05:28:08;12.35;55.73
70214;DHT22;60138;55.808;37.078;2023-05-29T05:30:35;12.44;55.98
70214;DHT22;60138;55.808;37.078;2023-05-29T05:33:01;12.66;55.53
70214;DHT22;60138;55.808;37.078;2023-05-29T05:35:26;12.76;55.06
70214;DHT22;60138;55.808;37.078;2023-05-29T05:37:52;12.82;54.16
70214;DHT22;60138;55.808;37.078;2023-05-29T05:40:18;12.82;53.71
70214;DHT22;60138;55.808;37.078;2023-05-29T05:42:57;12.89;53.91
70214;DHT22;60138;55.808;37.078;2023-05-29T05:45:37;12.90;53.38
70214;DHT22;60138;55.808;37.078;2023-05-29T05:48:03;13.01;53.04
70214;DHT22;60138;55.808;37.078;2023-05-29T05:50:29;13.10;53.26
70214;DHT22;60138;55.808;37.078;2023-05-29T05:52:55;13.22;52.81
70214;DHT22;60138;55.808;37.078;2023-05-29T05:55:21;13.30;52.42
70214;DHT22;60138;55.808;37.078;2023-05-29T05:57:47;13.38;52.46
70214;DHT22;60138;55.808;37.078;2023-05-29T06:00:14;13.59;51.22
70214;DHT22;60138;55.808;37.078;2023-05-29T06:02:43;13.74;44.64
70214;DHT22;60138;55.808;37.078;2023-05-29T06:05:11;13.97;47.77
70214;DHT22;60138;55.808;37.078;2023-05-29T06:07:38;13.99;49.79
70214;DHT22;60138;55.808;37.078;2023-05-29T06:10:04;14.04;48.60
70214;DHT22;60138;55.808;37.078;2023-05-29T06:12:30;14.04;48.92
70214;DHT22;60138;55.808;37.078;2023-05-29T06:15:07;14.11;48.14
70214;DHT22;60138;55.808;37.078;2023-05-29T06:17:33;14.13;47.54
70214;DHT22;60138;55.808;37.078;2023-05-29T06:19:59;14.34;41.46
70214;DHT22;60138;55.808;37.078;2023-05-29T06:22:25;14.55;45.09
70214;DHT22;60138;55.808;37.078;2023-05-29T06:24:51;14.59;40.78
70214;DHT22;60138;55.808;37.078;2023-05-29T06:27:17;14.70;41.83
70214;DHT22;60138;55.808;37.078;2023-05-29T06:29:43;14.78;43.00
70214;DHT22;60138;55.808;37.078;2023-05-29T06:32:09;14.77;43.92
70214;DHT22;60138;55.808;37.078;2023-05-29T06:34:35;14.84;37.66
70214;DHT22;60138;55.808;37.078;2023-05-29T06:37:01;15.00;42.26
70214;DHT22;60138;55.808;37.078;2023-05-29T06:39:27;15.00;42.88
70214;DHT22;60138;55.808;37.078;2023-05-29T06:41:53;15.10;42.15
70214;DHT22;60138;55.808;37.078;2023-05-29T06:44:19;15.23;42.58
70214;DHT22;60138;55.808;37.078;2023-05-29T06:46:45;15.38;40.63
70214;DHT22;60138;55.808;37.078;2023-05-29T06:49:12;15.42;41.06
70214;DHT22;60138;55.808;37.078;2023-05-29T06:51:37;15.53;40.31
70214;DHT22;60138;55.808;37.078;2023-05-29T06:54:22;15.55;41.09
70214;DHT22;60138;55.808;37.078;2023-05-29T06:56:48;15.57;42.56
70214;DHT22;60138;55.808;37.078;2023-05-29T06:59:14;15.58;42.80
70214;DHT22;60138;55.808;37.078;2023-05-29T07:01:58;15.48;39.07
70214;DHT22;60138;55.808;37.078;2023-05-29T07:04:25;15.58;42.87
70214;DHT22;60138;55.808;37.078;2023-05-29T07:06:51;15.66;42.03
70214;DHT22;60138;55.808;37.078;2023-05-29T07:09:17;15.71;41.87
70214;DHT22;60138;55.808;37.078;2023-05-29T07:11:42;15.67;36.43
70214;DHT22;60138;55.808;37.078;2023-05-29T07:14:08;15.78;39.27
70214;DHT22;60138;55.808;37.078;2023-05-29T07:16:34;15.87;40.20
70214;DHT22;60138;55.808;37.078;2023-05-29T07:19:04;15.95;39.07
70214;DHT22;60138;55.808;37.078;2023-05-29T07:21:34;16.01;40.27
70214;DHT22;60138;55.808;37.078;2023-05-29T07:23:59;16.01;40.97
70214;DHT22;60138;55.808;37.078;2023-05-29T07:26:25;16.06;40.40
70214;DHT22;60138;55.808;37.078;2023-05-29T07:28:51;16.03;41.71
70214;DHT22;60138;55.808;37.078;2023-05-29T07:31:17;15.99;41.12
70214;DHT22;60138;55.808;37.078;2023-05-29T07:33:43;15.99;40.47
70214;DHT22;60138;55.808;37.078;2023-05-29T07:36:09;15.96;41.16
70214;DHT22;60138;55.808;37.078;2023-05-29T07:38:35;15.97;39.12
70214;DHT22;60138;55.808;37.078;2023-05-29T07:41:01;15.98;39.40
70214;DHT22;60138;55.808;37.078;2023-05-29T07:43:31;16.08;40.41
70214;DHT22;60138;55.808;37.078;2023-05-29T07:46:03;16.03;41.18
70214;DHT22;60138;55.808;37.078;2023-05-29T07:48:29;15.98;40.34
70214;DHT22;60138;55.808;37.078;2023-05-29T07:50:56;16.02;37.31
70214;DHT22;60138;55.808;37.078;2023-05-29T07:53:23;16.21;38.22
70214;DHT22;60138;55.808;37.078;2023-05-29T07:55:50;16.20;38.01
70214;DHT22;60138;55.808;37.078;2023-05-29T07:58:16;16.34;37.75
70214;DHT22;60138;55.808;37.078;2023-05-29T08:00:44;16.42;39.05
70214;DHT22;60138;55.808;37.078;2023-05-29T08:03:10;16.49;39.59
70214;DHT22;60138;55.808;37.078;2023-05-29T08:05:58;16.55;39.30
70214;DHT22;60138;55.808;37.078;2023-05-29T08:08:26;16.57;39.97
70214;DHT22;60138;55.808;37.078;2023-05-29T08:10:52;16.58;39.00
70214;DHT22;60138;55.808;37.078;2023-05-29T08:13:18;16.61;40.19
70214;DHT22;60138;55.808;37.078;2023-05-29T08:15:44;16.63;39.68
70214;DHT22;60138;55.808;37.078;2023-05-29T08:18:10;16.61;40.01
70214;DHT22;60138;55.808;37.078;2023-05-29T08:20:35;16.71;40.35
70214;DHT22;60138;55.808;37.078;2023-05-29T08:23:01;16.69;40.30
70214;DHT22;60138;55.808;37.078;2023-05-29T08:25:27;16.74;39.98
70214;DHT22;60138;55.808;37.078;2023-05-29T08:27:53;16.84;39.97
70214;DHT22;60138;55.808;37.078;2023-05-29T08:30:18;17.00;36.86
70214;DHT22;60138;55.808;37.078;2023-05-29T08:32:44;17.13;36.43
70214;DHT22;60138;55.808;37.078;2023-05-29T08:35:10;17.16;36.53
70214;DHT22;60138;55.808;37.078;2023-05-29T08:37:35;17.21;38.53
70214;DHT22;60138;55.808;37.078;2023-05-29T08:40:01;17.22;38.67
70214;DHT22;60138;55.808;37.078;2023-05-29T08:42:29;17.21;38.84
70214;DHT22;60138;55.808;37.078;2023-05-29T08:45:02;17.24;38.56
70214;DHT22;60138;55.808;37.078;2023-05-29T08:47:33;17.33;38.56
70214;DHT22;60138;55.808;37.078;2023-05-29T08:50:00;17.44;36.86
70214;DHT22;60138;55.808;37.078;2023-05-29T08:52:34;17.48;38.05
70214;DHT22;60138;55.808;37.078;2023-05-29T08:55:00;17.47;36.34
70214;DHT22;60138;55.808;37.078;2023-05-29T08:57:28;17.45;38.38
70214;DHT22;60138;55.808;37.078;2023-05-29T08:59:55;17.52;37.12
70214;DHT22;60138;55.808;37.078;2023-05-29T09:02:21;17.63;36.43
70214;DHT22;60138;55.808;37.078;2023-05-29T09:04:47;17.72;36.47
70214;DHT22;60138;55.808;37.078;2023-05-29T09:07:13;17.73;37.34
70214;DHT22;60138;55.808;37.078;2023-05-29T09:09:39;17.83;38.18
70214;DHT22;60138;55.808;37.078;2023-05-29T09:12:05;17.92;34.57
70214;DHT22;60138;55.808;37.078;2023-05-29T09:14:43;18.06;34.21
70214;DHT22;60138;55.808;37.078;2023-05-29T09:17:10;18.05;32.52
70214;DHT22;60138;55.808;37.078;2023-05-29T09:19:36;18.13;34.37
70214;DHT22;60138;55.808;37.078;2023-05-29T09:22:04;18.12;35.47
70214;DHT22;60138;55.808;37.078;2023-05-29T09:24:32;18.15;35.33
70214;DHT22;60138;55.808;37.078;2023-05-29T09:26:59;18.24;35.28
70214;DHT22;60138;55.808;37.078;2023-05-29T09:29:25;18.38;35.38
70214;DHT22;60138;55.808;37.078;2023-05-29T09:31:51;18.47;36.53
70214;DHT22;60138;55.808;37.078;2023-05-29T09:34:16;18.53;33.12
70214;DHT22;60138;55.808;37.078;2023-05-29T09:36:42;18.56;35.26
70214;DHT22;60138;55.808;37.078;2023-05-29T09:39:08;18.66;35.97
70214;DHT22;60138;55.808;37.078;2023-05-29T09:41:34;18.72;35.96
70214;DHT22;60138;55.808;37.078;2023-05-29T09:44:00;18.82;36.24
70214;DHT22;60138;55.808;37.078;2023-05-29T09:46:26;18.92;36.59
70214;DHT22;60138;55.808;37.078;2023-05-29T09:48:52;19.02;35.89
70214;DHT22;60138;55.808;37.078;2023-05-29T09:51:21;19.10;37.14
70214;DHT22;60138;55.808;37.078;2023-05-29T09:53:47;19.21;32.76
70214;DHT22;60138;55.808;37.078;2023-05-29T09:56:13;19.18;35.04
70214;DHT22;60138;55.808;37.078;2023-05-29T09:58:40;19.22;34.27
70214;DHT22;60138;55.808;37.078;2023-05-29T10:01:07;19.17;29.46
70214;DHT22;60138;55.808;37.078;2023-05-29T10:03:33;19.25;34.60
70214;DHT22;60138;55.808;37.078;2023-05-29T10:05:59;19.29;35.09
70214;DHT22;60138;55.808;37.078;2023-05-29T10:08:25;19.33;34.16
70214;DHT22;60138;55.808;37.078;2023-05-29T10:11:02;19.38;33.73
70214;DHT22;60138;55.808;37.078;2023-05-29T10:13:29;19.45;35.24
70214;DHT22;60138;55.808;37.078;2023-05-29T10:15:56;19.53;35.93
70214;DHT22;60138;55.808;37.078;2023-05-29T10:18:37;19.62;30.66
70214;DHT22;60138;55.808;37.078;2023-05-29T10:21:04;19.61;33.60
70214;DHT22;60138;55.808;37.078;2023-05-29T10:23:32;19.63;33.53
70214;DHT22;60138;55.808;37.078;2023-05-29T10:26:09;19.72;31.94
70214;DHT22;60138;55.808;37.078;2023-05-29T10:28:39;19.70;33.79
70214;DHT22;60138;55.808;37.078;2023-05-29T10:31:09;19.74;34.18
70214;DHT22;60138;55.808;37.078;2023-05-29T10:36:45;19.81;34.71
70214;DHT22;60138;55.808;37.078;2023-05-29T10:39:13;19.86;34.14
70214;DHT22;60138;55.808;37.078;2023-05-29T10:41:39;19.86;34.63
70214;DHT22;60138;55.808;37.078;2023-05-29T10:49:22;19.80;32.85
70214;DHT22;60138;55.808;37.078;2023-05-29T10:51:48;19.84;32.06
70214;DHT22;60138;55.808;37.078;2023-05-29T10:54:15;19.85;33.82
70214;DHT22;60138;55.808;37.078;2023-05-29T10:56:40;19.92;34.15
70214;DHT22;60138;55.808;37.078;2023-05-29T10:59:08;20.01;32.40
70214;DHT22;60138;55.808;37.078;2023-05-29T11:01:33;20.12;33.10
70214;DHT22;60138;55.808;37.078;2023-05-29T11:06:41;20.19;33.07
70214;DHT22;60138;55.808;37.078;2023-05-29T11:09:36;20.30;33.13
70214;DHT22;60138;55.808;37.078;2023-05-29T11:14:54;20.43;33.35
70214;DHT22;60138;55.808;37.078;2023-05-29T11:17:50;20.44;32.14
70214;DHT22;60138;55.808;37.078;2023-05-29T11:20:36;20.43;29.62
70214;DHT22;60138;55.808;37.078;2023-05-29T11:23:03;20.45;32.84
70214;DHT22;60138;55.808;37.078;2023-05-29T11:25:32;20.54;32.73
70214;DHT22;60138;55.808;37.078;2023-05-29T11:27:58;20.65;32.46
70214;DHT22;60138;55.808;37.078;2023-05-29T11:30:24;20.57;24.51
70214;DHT22;60138;55.808;37.078;2023-05-29T11:32:52;20.64;32.89
70214;DHT22;60138;55.808;37.078;2023-05-29T11:35:21;20.77;30.83
70214;DHT22;60138;55.808;37.078;2023-05-29T11:37:47;20.85;32.57
70214;DHT22;60138;55.808;37.078;2023-05-29T11:40:14;21.30;32.74
70214;DHT22;60138;55.808;37.078;2023-05-29T11:42:45;23.82;30.75
70214;DHT22;60138;55.808;37.078;2023-05-29T11:45:16;26.38;28.71
70214;DHT22;60138;55.808;37.078;2023-05-29T11:48:00;28.29;26.57
70214;DHT22;60138;55.808;37.078;2023-05-29T11:50:28;29.65;25.11
70214;DHT22;60138;55.808;37.078;2023-05-29T11:52:57;30.52;25.89
70214;DHT22;60138;55.808;37.078;2023-05-29T11:55:24;30.94;21.40
70214;DHT22;60138;55.808;37.078;2023-05-29T11:57:51;31.69;24.36
70214;DHT22;60138;55.808;37.078;2023-05-29T12:00:21;32.42;21.57
70214;DHT22;60138;55.808;37.078;2023-05-29T12:02:47;33.41;25.28
70214;DHT22;60138;55.808;37.078;2023-05-29T12:05:15;34.62;23.38
70214;DHT22;60138;55.808;37.078;2023-05-29T12:10:15;37.37;21.81
70214;DHT22;60138;55.808;37.078;2023-05-29T12:12:41;38.29;21.77
70214;DHT22;60138;55.808;37.078;2023-05-29T12:15:08;39.14;22.34
70214;DHT22;60138;55.808;37.078;2023-05-29T12:17:37;39.59;18.92
70214;DHT22;60138;55.808;37.078;2023-05-29T12:20:04;39.89;19.34
70214;DHT22;60138;55.808;37.078;2023-05-29T12:22:37;40.15;6.05
70214;DHT22;60138;55.808;37.078;2023-05-29T12:25:15;39.95;17.25
70214;DHT22;60138;55.808;37.078;2023-05-29T12:27:44;40.57;16.91
70214;DHT22;60138;55.808;37.078;2023-05-29T12:30:28;41.26;9.56
70214;DHT22;60138;55.808;37.078;2023-05-29T12:32:53;41.12;20.18
70214;DHT22;60138;55.808;37.078;2023-05-29T12:35:24;41.60;18.52
70214;DHT22;60138;55.808;37.078;2023-05-29T12:38:04;42.20;15.79
70214;DHT22;60138;55.808;37.078;2023-05-29T12:40:34;42.60;17.63
70214;DHT22;60138;55.808;37.078;2023-05-29T12:43:02;42.21;18.64
70214;DHT22;60138;55.808;37.078;2023-05-29T12:45:30;42.24;20.00
70214;DHT22;60138;55.808;37.078;2023-05-29T12:47:58;41.93;17.19
70214;DHT22;60138;55.808;37.078;2023-05-29T12:50:29;42.02;18.22
70214;DHT22;60138;55.808;37.078;2023-05-29T12:52:59;41.31;8.49
70214;DHT22;60138;55.808;37.078;2023-05-29T12:55:27;41.39;16.38
70214;DHT22;60138;55.808;37.078;2023-05-29T12:57:54;41.67;16.94
70214;DHT22;60138;55.808;37.078;2023-05-29T13:00:20;41.93;16.45
70214;DHT22;60138;55.808;37.078;2023-05-29T13:02:47;42.32;16.96
70214;DHT22;60138;55.808;37.078;2023-05-29T13:05:13;42.47;10.58
70214;DHT22;60138;55.808;37.078;2023-05-29T13:07:39;42.50;16.43
70214;DHT22;60138;55.808;37.078;2023-05-29T13:10:05;42.53;16.05
70214;DHT22;60138;55.808;37.078;2023-05-29T13:12:31;42.87;15.05
70214;DHT22;60138;55.808;37.078;2023-05-29T13:14:57;42.31;16.30
70214;DHT22;60138;55.808;37.078;2023-05-29T13:17:23;42.48;11.82
70214;DHT22;60138;55.808;37.078;2023-05-29T13:19:49;41.21;3.70
70214;DHT22;60138;55.808;37.078;2023-05-29T13:22:15;40.29;12.72
70214;DHT22;60138;55.808;37.078;2023-05-29T13:24:41;39.98;6.44
70214;DHT22;60138;55.808;37.078;2023-05-29T13:27:07;39.66;14.76
70214;DHT22;60138;55.808;37.078;2023-05-29T13:29:34;40.17;15.93
70214;DHT22;60138;55.808;37.078;2023-05-29T13:32:00;40.83;8.61
70214;DHT22;60138;55.808;37.078;2023-05-29T13:34:26;41.17;14.95
70214;DHT22;60138;55.808;37.078;2023-05-29T13:36:52;41.26;12.58
70214;DHT22;60138;55.808;37.078;2023-05-29T13:39:18;40.54;9.63
70214;DHT22;60138;55.808;37.078;2023-05-29T13:41:44;40.54;15.50
70214;DHT22;60138;55.808;37.078;2023-05-29T13:44:09;40.89;16.39
70214;DHT22;60138;55.808;37.078;2023-05-29T13:46:35;40.83;12.97
70214;DHT22;60138;55.808;37.078;2023-05-29T13:49:03;41.47;14.03
70214;DHT22;60138;55.808;37.078;2023-05-29T13:51:28;42.04;14.17
70214;DHT22;60138;55.808;37.078;2023-05-29T13:53:54;42.04;13.80
70214;DHT22;60138;55.808;37.078;2023-05-29T13:56:20;42.06;11.45
70214;DHT22;60138;55.808;37.078;2023-05-29T13:58:45;41.91;14.61
70214;DHT22;60138;55.808;37.078;2023-05-29T14:01:11;42.04;7.95
70214;DHT22;60138;55.808;37.078;2023-05-29T14:03:38;42.04;10.86
70214;DHT22;60138;55.808;37.078;2023-05-29T14:06:04;42.30;14.26
70214;DHT22;60138;55.808;37.078;2023-05-29T14:08:29;42.17;12.96
70214;DHT22;60138;55.808;37.078;2023-05-29T14:10:55;42.23;13.20
70214;DHT22;60138;55.808;37.078;2023-05-29T14:13:21;42.59;10.85
70214;DHT22;60138;55.808;37.078;2023-05-29T14:15:46;42.79;11.56
70214;DHT22;60138;55.808;37.078;2023-05-29T14:18:12;43.06;13.23
70214;DHT22;60138;55.808;37.078;2023-05-29T14:20:38;42.76;13.81
70214;DHT22;60138;55.808;37.078;2023-05-29T14:23:04;42.82;13.20
70214;DHT22;60138;55.808;37.078;2023-05-29T14:25:30;42.87;12.84
70214;DHT22;60138;55.808;37.078;2023-05-29T14:27:55;43.29;13.39
70214;DHT22;60138;55.808;37.078;2023-05-29T14:30:21;43.25;6.83
70214;DHT22;60138;55.808;37.078;2023-05-29T14:32:47;42.35;9.17
70214;DHT22;60138;55.808;37.078;2023-05-29T14:35:12;42.14;12.66
70214;DHT22;60138;55.808;37.078;2023-05-29T14:37:38;42.07;11.46
70214;DHT22;60138;55.808;37.078;2023-05-29T14:40:05;41.81;11.52
70214;DHT22;60138;55.808;37.078;2023-05-29T14:42:32;40.38;9.12
70214;DHT22;60138;55.808;37.078;2023-05-29T14:44:58;40.39;11.94
70214;DHT22;60138;55.808;37.078;2023-05-29T14:47:24;40.60;7.33
70214;DHT22;60138;55.808;37.078;2023-05-29T14:49:49;40.57;12.91
70214;DHT22;60138;55.808;37.078;2023-05-29T14:52:15;40.92;10.38
70214;DHT22;60138;55.808;37.078;2023-05-29T14:54:41;39.79;5.84
70214;DHT22;60138;55.808;37.078;2023-05-29T14:57:07;39.29;10.63
70214;DHT22;60138;55.808;37.078;2023-05-29T14:59:32;38.62;7.03
70214;DHT22;60138;55.808;37.078;2023-05-29T15:01:58;38.89;10.59
70214;DHT22;60138;55.808;37.078;2023-05-29T15:04:24;39.14;11.85
70214;DHT22;60138;55.808;37.078;2023-05-29T15:06:50;39.49;11.49
70214;DHT22;60138;55.808;37.078;2023-05-29T15:09:15;39.77;12.17
70214;DHT22;60138;55.808;37.078;2023-05-29T15:11:41;40.08;11.19
70214;DHT22;60138;55.808;37.078;2023-05-29T15:14:07;40.23;10.93
70214;DHT22;60138;55.808;37.078;2023-05-29T15:16:33;40.22;12.17
70214;DHT22;60138;55.808;37.078;2023-05-29T15:18:58;39.79;11.78
70214;DHT22;60138;55.808;37.078;2023-05-29T15:21:24;38.67;9.97
70214;DHT22;60138;55.808;37.078;2023-05-29T15:23:50;37.51;11.96
70214;DHT22;60138;55.808;37.078;2023-05-29T15:26:16;36.72;12.46
70214;DHT22;60138;55.808;37.078;2023-05-29T15:28:41;35.77;12.28
70214;DHT22;60138;55.808;37.078;2023-05-29T15:31:07;34.73;13.19
70214;DHT22;60138;55.808;37.078;2023-05-29T15:33:33;34.01;13.71
70214;DHT22;60138;55.808;37.078;2023-05-29T15:35:59;33.52;14.09
70214;DHT22;60138;55.808;37.078;2023-05-29T15:38:24;33.05;14.43
70214;DHT22;60138;55.808;37.078;2023-05-29T15:40:50;32.53;14.21
70214;DHT22;60138;55.808;37.078;2023-05-29T15:43:16;32.07;14.48
70214;DHT22;60138;55.808;37.078;2023-05-29T15:45:42;31.67;15.23